createdAt,value
2023-03-25T08:17:45.293Z,96201.47
2023-03-25T08:20:13.301Z,96228.31
2023-03-25T08:22:41.348Z,96246.72
2023-03-25T08:25:10.139Z,96252.44
2023-03-25T08:27:38.226Z,96230.53
2023-03-25T08:30:10.005Z,96243.66
2023-03-25T08:32:38.528Z,96249.63
2023-03-25T08:35:08.880Z,96243.38
2023-03-25T08:37:37.875Z,96230.94
2023-03-25T08:40:08.817Z,96233.41
2023-03-25T08:42:36.780Z,96249.50
2023-03-25T08:45:05.637Z,96222.13
2023-03-25T08:47:33.480Z,96230.44
2023-03-25T08:50:01.356Z,96221.22
2023-03-25T08:52:30.786Z,96226.72
2023-03-25T08:54:58.607Z,96212.19
2023-03-25T08:57:26.453Z,96226.47
2023-03-25T08:59:54.487Z,96225.31
2023-03-25T09:02:22.256Z,96225.06
2023-03-25T09:04:50.412Z,96204.44
2023-03-25T09:07:19.880Z,96223.47
2023-03-25T09:09:49.130Z,96218.69
2023-03-25T09:12:17.181Z,96228.69
2023-03-25T09:14:45.202Z,96218.91
2023-03-25T09:17:13.229Z,96225.84
2023-03-25T09:19:41.023Z,96225.72
2023-03-25T09:22:08.985Z,96227.91
2023-03-25T09:24:37.210Z,96228.63
2023-03-25T09:27:06.366Z,96191.41
2023-03-25T09:29:34.180Z,96203.63
2023-03-25T09:32:02.368Z,96218.81
2023-03-25T09:34:31.127Z,96207.53
2023-03-25T09:36:59.488Z,96185.22
2023-03-25T09:39:27.760Z,96206.34
2023-03-25T09:42:26.394Z,96208.53
2023-03-25T09:45:06.913Z,96209.91
2023-03-25T09:47:40.500Z,96204.31
2023-03-25T09:50:16.068Z,96190.47
2023-03-25T09:52:53.038Z,96209.44
2023-03-25T09:55:25.849Z,96207.69
2023-03-25T09:58:01.522Z,96221.09
2023-03-25T10:00:33.569Z,96204.16
2023-03-25T10:03:11.173Z,96234.69
2023-03-25T10:05:57.646Z,96229.94
2023-03-25T10:08:35.532Z,96236.09
2023-03-25T10:11:09.409Z,96236.28
2023-03-25T10:13:45.824Z,96226.03
2023-03-25T10:16:27.802Z,96219.00
2023-03-25T10:19:18.393Z,96220.56
2023-03-25T10:21:54.462Z,96221.09
2023-03-25T10:24:27.316Z,96242.06
2023-03-25T10:26:59.931Z,96219.09
2023-03-25T10:29:34.188Z,96219.19
2023-03-25T10:32:07.305Z,96220.34
2023-03-25T10:34:39.257Z,96213.53
2023-03-25T10:37:13.145Z,96233.38
2023-03-25T10:39:45.366Z,96237.03
2023-03-25T10:42:21.908Z,96222.31
2023-03-25T10:44:51.294Z,96240.91
2023-03-25T10:47:21.598Z,96235.16
2023-03-25T10:49:52.420Z,96229.50
2023-03-25T10:52:20.594Z,96223.25
2023-03-25T10:54:52.719Z,96232.38
2023-03-25T10:57:22.972Z,96228.75
2023-03-25T11:00:05.971Z,96227.47
2023-03-25T11:02:35.114Z,96211.41
2023-03-25T11:05:06.618Z,96227.03
2023-03-25T11:07:38.046Z,96199.38
2023-03-25T11:10:18.021Z,96216.53
2023-03-25T11:12:48.069Z,96215.31
2023-03-25T11:15:20.416Z,96192.94
2023-03-25T11:17:49.364Z,96218.34
2023-03-25T11:20:22.968Z,96228.50
2023-03-25T11:22:54.480Z,96226.91
2023-03-25T11:25:26.817Z,96212.72
2023-03-25T11:27:57.718Z,96229.50
2023-03-25T11:30:27.368Z,96237.16
2023-03-25T11:33:01.045Z,96230.81
2023-03-25T11:35:31.801Z,96224.28
2023-03-25T11:38:01.463Z,96216.50
2023-03-25T11:40:31.271Z,96207.47
2023-03-25T11:43:01.337Z,96227.56
2023-03-25T11:45:35.783Z,96233.56
2023-03-25T11:48:11.951Z,96213.16
2023-03-25T11:50:39.836Z,96226.66
2023-03-25T11:53:07.655Z,96241.66
2023-03-25T11:55:45.068Z,96226.53
2023-03-25T11:58:17.903Z,96228.97
2023-03-25T12:00:50.921Z,96212.13
2023-03-25T12:03:23.000Z,96225.19
2023-03-25T12:06:01.882Z,96210.84
2023-03-25T12:08:43.853Z,96192.81
2023-03-25T12:11:16.828Z,96189.66
2023-03-25T12:14:13.426Z,96189.84
2023-03-25T12:16:49.284Z,96186.72
2023-03-25T12:19:27.796Z,96195.66
2023-03-25T12:22:07.506Z,96186.25
2023-03-25T12:24:53.833Z,96194.22
2023-03-25T12:27:37.606Z,96181.22
2023-03-25T12:30:19.044Z,96184.44
2023-03-25T12:32:53.050Z,96166.75
2023-03-25T12:35:31.811Z,96175.03
2023-03-25T12:38:22.583Z,96188.56
2023-03-25T12:41:02.319Z,96179.88
2023-03-25T12:43:42.726Z,96172.94
2023-03-25T12:46:23.956Z,96168.09
2023-03-25T12:49:07.352Z,96183.22
2023-03-25T12:51:44.060Z,96171.69
2023-03-25T12:54:27.600Z,96178.72
2023-03-25T12:57:06.807Z,96166.00
2023-03-25T12:59:55.399Z,96180.00
2023-03-25T13:02:46.900Z,96178.19
2023-03-25T13:05:23.061Z,96171.34
2023-03-25T13:07:57.623Z,96183.19
2023-03-25T13:10:32.254Z,96164.81
2023-03-25T13:13:02.729Z,96176.72
2023-03-25T13:15:36.207Z,96166.31
2023-03-25T13:18:10.384Z,96182.97
2023-03-25T13:20:43.652Z,96160.13
2023-03-25T13:23:17.580Z,96166.59
2023-03-25T13:25:52.241Z,96172.66
2023-03-25T13:28:25.551Z,96168.06
2023-03-25T13:30:54.868Z,96170.06
2023-03-25T13:33:27.072Z,96181.56
2023-03-25T13:36:03.846Z,96164.50
2023-03-25T13:38:35.368Z,96184.50
2023-03-25T13:41:11.464Z,96185.41
2023-03-25T13:43:50.562Z,96181.75
2023-03-25T13:46:22.396Z,96187.41
2023-03-25T13:48:55.451Z,96179.03
2023-03-25T13:51:24.950Z,96184.50
2023-03-25T13:53:57.984Z,96177.44
2023-03-25T13:57:13.433Z,96184.50
2023-03-25T14:00:22.497Z,96190.53
2023-03-25T14:03:13.658Z,96202.13
2023-03-25T14:06:05.398Z,96182.97
2023-03-25T14:08:59.863Z,96183.22
2023-03-25T14:11:30.454Z,96189.13
2023-03-25T14:14:02.131Z,96170.72
2023-03-25T14:16:34.669Z,96198.16
2023-03-25T14:19:04.887Z,96199.06
2023-03-25T14:21:41.128Z,96187.66
2023-03-25T14:24:15.770Z,96190.94
2023-03-25T14:26:48.208Z,96205.19
2023-03-25T14:29:25.652Z,96187.16
2023-03-25T14:32:07.140Z,96182.09
2023-03-25T14:34:35.564Z,96185.91
2023-03-25T14:37:19.245Z,96164.88
2023-03-25T14:39:49.332Z,96195.03
2023-03-25T14:42:29.910Z,96169.72
2023-03-25T14:45:42.082Z,96180.94
2023-03-25T14:48:26.036Z,96161.03
2023-03-25T14:51:15.393Z,96157.03
2023-03-25T14:53:52.082Z,96166.00
2023-03-25T14:56:25.023Z,96161.13
2023-03-25T14:58:56.319Z,96152.47
2023-03-25T15:01:32.422Z,96172.44
2023-03-25T15:04:18.091Z,96145.19
2023-03-25T15:06:49.152Z,96166.59
2023-03-25T15:09:19.202Z,96152.38
2023-03-25T15:11:56.896Z,96156.47
2023-03-25T15:14:29.639Z,96158.09
2023-03-25T15:17:04.948Z,96157.81
2023-03-25T15:20:15.625Z,96163.53
2023-03-25T15:22:43.768Z,96175.06
2023-03-25T15:25:16.647Z,96174.31
2023-03-25T15:28:00.161Z,96176.50
2023-03-25T15:30:53.058Z,96173.91
2023-03-25T15:33:36.518Z,96190.06
2023-03-25T15:36:23.204Z,96177.56
2023-03-25T15:39:15.931Z,96197.34
2023-03-25T15:42:07.277Z,96198.25
2023-03-25T15:45:08.780Z,96186.53
2023-03-25T15:48:02.275Z,96198.47
2023-03-25T15:50:38.849Z,96198.41
2023-03-25T15:53:42.772Z,96201.41
2023-03-25T15:56:14.671Z,96192.53
2023-03-25T15:58:52.489Z,96201.63
2023-03-25T16:01:28.287Z,96198.06
2023-03-25T16:04:01.985Z,96197.66
2023-03-25T16:06:32.348Z,96201.69
2023-03-25T16:09:03.055Z,96226.34
2023-03-25T16:11:31.438Z,96230.13
2023-03-25T16:14:12.578Z,96225.81
2023-03-25T16:16:46.260Z,96248.75
2023-03-25T16:19:18.269Z,96240.03
2023-03-25T16:21:49.845Z,96252.38
2023-03-25T16:24:21.152Z,96245.66
2023-03-25T16:26:51.189Z,96243.66
2023-03-25T16:29:21.656Z,96264.34
2023-03-25T16:31:57.499Z,96250.03
2023-03-25T16:34:26.258Z,96246.81
2023-03-25T16:36:56.247Z,96249.34
2023-03-25T16:39:26.105Z,96242.41
2023-03-25T16:42:02.333Z,96236.94
2023-03-25T16:44:30.539Z,96230.16
2023-03-25T16:47:02.016Z,96224.38
2023-03-25T16:49:33.249Z,96215.91
2023-03-25T16:52:04.275Z,96210.81
2023-03-25T16:54:38.024Z,96219.25
2023-03-25T16:57:08.656Z,96213.78
2023-03-25T16:59:38.002Z,96223.16
2023-03-25T17:02:26.235Z,96221.41
2023-03-25T17:04:57.366Z,96218.38
2023-03-25T17:07:29.256Z,96207.97
2023-03-25T17:09:59.948Z,96202.66
2023-03-25T17:12:30.107Z,96207.72
2023-03-25T17:15:07.015Z,96197.97
2023-03-25T17:17:41.885Z,96190.47
2023-03-25T17:20:19.047Z,96203.66
2023-03-25T17:22:59.475Z,96198.66
2023-03-25T17:25:32.156Z,96195.94
2023-03-25T17:28:06.812Z,96191.81
2023-03-25T17:30:43.587Z,96200.50
2023-03-25T17:33:15.624Z,96200.16
2023-03-25T17:35:44.698Z,96197.22
2023-03-25T17:38:24.614Z,96204.38
2023-03-25T17:41:03.311Z,96196.88
2023-03-25T17:43:34.112Z,96193.16
2023-03-25T17:46:02.822Z,96191.72
2023-03-25T17:48:32.216Z,96194.78
2023-03-25T17:51:00.623Z,96198.97
2023-03-25T17:53:28.640Z,96202.03
2023-03-25T17:55:59.170Z,96198.22
2023-03-25T17:58:27.204Z,96200.72
2023-03-25T18:00:55.017Z,96195.47
2023-03-25T18:03:25.381Z,96190.16
2023-03-25T18:05:55.078Z,96187.31
2023-03-25T18:08:24.534Z,96207.38
2023-03-25T18:10:53.699Z,96205.13
2023-03-25T18:13:23.892Z,96207.13
2023-03-25T18:15:52.624Z,96200.56
2023-03-25T18:18:24.157Z,96217.38
2023-03-25T18:20:53.174Z,96211.22
2023-03-25T18:23:25.287Z,96221.00
2023-03-25T18:25:53.171Z,96217.50
2023-03-25T18:28:21.771Z,96213.00
2023-03-25T18:30:54.110Z,96211.25
2023-03-25T18:33:22.742Z,96217.88
2023-03-25T18:35:53.435Z,96216.06
2023-03-25T18:38:24.450Z,96211.16
2023-03-25T18:40:53.558Z,96228.00
2023-03-25T18:43:22.393Z,96224.53
2023-03-25T18:45:50.632Z,96214.28
2023-03-25T18:48:21.192Z,96220.91
2023-03-25T18:50:53.519Z,96234.94
2023-03-25T18:53:25.568Z,96220.00
2023-03-25T18:55:54.598Z,96216.25
2023-03-25T18:58:23.929Z,96229.03
2023-03-25T19:00:53.290Z,96213.69
2023-03-25T19:03:31.610Z,96218.34
2023-03-25T19:06:01.037Z,96227.88
2023-03-25T19:08:30.335Z,96224.50
2023-03-25T19:11:08.148Z,96221.00
2023-03-25T19:13:44.632Z,96230.66
2023-03-25T19:16:12.776Z,96228.91
2023-03-25T19:18:40.642Z,96222.06
2023-03-25T19:21:08.787Z,96223.09
2023-03-25T19:23:37.933Z,96223.09
2023-03-25T19:26:06.734Z,96216.16
2023-03-25T19:28:34.525Z,96207.75
2023-03-25T19:31:03.010Z,96220.31
2023-03-25T19:33:31.938Z,96227.16
2023-03-25T19:36:01.667Z,96227.28
2023-03-25T19:38:30.854Z,96229.59
2023-03-25T19:41:05.785Z,96225.31
2023-03-25T19:43:33.988Z,96224.94
2023-03-25T19:46:02.251Z,96223.56
2023-03-25T19:48:30.773Z,96207.53
2023-03-25T19:50:58.901Z,96202.09
2023-03-25T19:53:28.151Z,96210.91
2023-03-25T19:55:56.322Z,96214.53
2023-03-25T19:58:25.448Z,96216.84
2023-03-25T20:00:53.979Z,96218.59
2023-03-25T20:03:23.995Z,96207.56
2023-03-25T20:05:57.107Z,96215.56
2023-03-25T20:08:25.718Z,96204.88
2023-03-25T20:10:54.017Z,96199.56
2023-03-25T20:13:22.184Z,96207.78
2023-03-25T20:15:51.660Z,96207.78
2023-03-25T20:18:20.022Z,96200.38
2023-03-25T20:20:47.953Z,96188.91
2023-03-25T20:23:15.764Z,96206.75
2023-03-25T20:25:43.652Z,96207.59
2023-03-25T20:28:11.440Z,96208.50
2023-03-25T20:30:39.302Z,96215.66
2023-03-25T20:33:08.554Z,96209.06
2023-03-25T20:35:37.029Z,96201.41
2023-03-25T20:38:06.090Z,96203.94
2023-03-25T20:40:43.655Z,96199.50
2023-03-25T20:43:14.732Z,96205.28
2023-03-25T20:45:43.309Z,96197.50
2023-03-25T20:48:12.668Z,96208.16
2023-03-25T20:50:40.657Z,96202.56
2023-03-25T20:53:09.030Z,96212.19
2023-03-25T20:55:37.485Z,96204.56
2023-03-25T20:58:05.904Z,96190.31
2023-03-25T21:00:34.110Z,96206.25
2023-03-25T21:03:02.231Z,96201.72
2023-03-25T21:05:31.480Z,96195.03
2023-03-25T21:07:59.294Z,96186.44
2023-03-25T21:10:27.287Z,96192.94
2023-03-25T21:12:55.123Z,96191.78
2023-03-25T21:15:23.163Z,96188.75
2023-03-25T21:17:51.003Z,96175.06
2023-03-25T21:20:21.908Z,96182.41
2023-03-25T21:22:51.631Z,96184.47
2023-03-25T21:25:19.478Z,96177.75
2023-03-25T21:27:47.495Z,96179.59
2023-03-25T21:30:16.060Z,96180.88
2023-03-25T21:32:44.081Z,96178.19
2023-03-25T21:35:12.094Z,96174.81
2023-03-25T21:37:40.281Z,96174.06
2023-03-25T21:40:12.513Z,96180.94
2023-03-25T21:42:41.270Z,96159.66
2023-03-25T21:45:10.960Z,96166.88
2023-03-25T21:47:38.845Z,96139.88
2023-03-25T21:50:09.976Z,96163.66
2023-03-25T21:52:38.413Z,96168.56
2023-03-25T21:55:07.424Z,96168.44
2023-03-25T21:57:38.296Z,96173.41
2023-03-25T22:00:08.983Z,96171.19
2023-03-25T22:02:37.002Z,96179.66
2023-03-25T22:05:05.190Z,96180.84
2023-03-25T22:07:33.080Z,96170.66
2023-03-25T22:10:00.911Z,96178.31
2023-03-25T22:12:30.001Z,96167.06
2023-03-25T22:14:59.337Z,96172.53
2023-03-25T22:17:27.490Z,96166.94
2023-03-25T22:19:55.406Z,96170.03
2023-03-25T22:22:23.211Z,96153.13
2023-03-25T22:24:51.303Z,96158.13
2023-03-25T22:27:19.142Z,96155.94
2023-03-25T22:29:47.009Z,96145.84
2023-03-25T22:32:16.364Z,96159.41
2023-03-25T22:34:44.235Z,96155.34
2023-03-25T22:37:12.053Z,96153.84
2023-03-25T22:39:40.096Z,96165.00
2023-03-25T22:42:07.973Z,96158.16
2023-03-25T22:44:35.954Z,96161.88
2023-03-25T22:47:04.297Z,96154.44
2023-03-25T22:49:33.468Z,96158.72
2023-03-25T22:52:01.327Z,96156.63
2023-03-25T22:54:29.146Z,96168.78
2023-03-25T22:56:57.025Z,96158.34
2023-03-25T22:59:24.804Z,96168.19
2023-03-25T23:01:52.696Z,96153.13
2023-03-25T23:04:20.541Z,96157.53
2023-03-25T23:06:57.236Z,96156.59
2023-03-25T23:09:45.212Z,96153.75
2023-03-25T23:12:15.655Z,96151.91
2023-03-25T23:14:48.783Z,96165.94
2023-03-25T23:17:16.838Z,96153.75
2023-03-25T23:19:45.491Z,96148.28
2023-03-25T23:22:15.108Z,96145.50
2023-03-25T23:24:42.863Z,96137.31
2023-03-25T23:27:12.622Z,96139.06
2023-03-25T23:29:41.658Z,96128.97
2023-03-25T23:32:10.361Z,96132.00
2023-03-25T23:34:40.236Z,96122.47
2023-03-25T23:37:09.303Z,96110.91
2023-03-25T23:39:40.408Z,96113.38
2023-03-25T23:42:08.670Z,96122.53
2023-03-25T23:44:37.225Z,96113.84
2023-03-25T23:47:06.172Z,96103.28
2023-03-25T23:49:38.234Z,96107.09
2023-03-25T23:52:10.716Z,96113.38
2023-03-25T23:54:40.204Z,96110.38
2023-03-25T23:57:07.945Z,96112.22
2023-03-25T23:59:35.854Z,96102.81
